Muscat, Oman
Current Conditions -  °F | °C
As of 3:50 PM on Tuesday 21 Oct 2014 (Local Time) from OOMS Reporting Station
Clear Clear  
Wind Chill: 88°   Ceiling: Unl
Heat Index: 100°   Visibility: 6mi
Dew Point: 77°   Wind: 8mph
Humidity: 70%   Direction: 40°NE
Pressure: 29.88"   Gusts: NA
Location:  23.61°N, 58.54°E
Report Text: OOMS 211150Z 04007KT 350V070 CAVOK 31/25 Q1012 NOSIG
Loading
Personal Weather Stations






























Interactive Weather Map
Tropical Storm Tracking
New forecast layout! Learn more

10-Day Weather Forecast

Advertisements
Track Severe Weather on mobile